首页
METAR-TAF:

METAR-TAF

机场 :

科利佐沃國際機場

葉卡捷琳堡, 俄罗斯

纬度: 56-50N, 经度: 060-38E, 海拔: 237米

当前天气观测

该预报发布于31分钟前的15:00 UTC
风速6节,风向南转西南,在西南之间变化
温度 19°C
湿度 68%
气压 1011 hPa
能见度10公里或以上
1500米以下无云,无积雨云

METAR: USSS 161500Z 20003MPS 170V230 CAVOK 19/13 Q1011 R26L/010060 R26R/010060 NOSIG RMK QFE737/0983

时间: 20:31 (15:31 UTC)

预报

该预报发布于1小时和35分钟前的13:56 UTC
预报有效从16日的 15点(UTC)到 17日的 15点(UTC)
风速6节,风向西南,有时为23节阵风
能见度10公里或以上
散云层高于3000英尺, 积雨云.
成为
从 16日的 16点(UTC)到 16日的 17点(UTC)
能見度: 6000
散云层高于1100英尺
多云层高于2000英尺, 积雨云.
小阵雨
短暂存在
从 16日的 18点(UTC)到 17日的 15点(UTC)
雷暴, 小雨

TAF: USSS 161356Z 1615/1715 22003G12MPS 9999 SCT030CB BECMG 1616/1617 6000 -SHRA SCT011 BKN020CB TEMPO 1618/1715 -TSRA

超过4000个机场的气象观测和天气预报(METAR&TAF报告)。

可查询的气象台以黄色和红色小点在地图上表示。

将鼠标移到小点上方,可查看气象台名称。

然后点击查看天气观测和预报。

如需切换地图:点击带黑十字的绿色按钮放大地图;点击带横线的绿色按钮缩小地图;或者点击绿色箭头查看邻近地区的地图。


METAR-TAF: